^^
Saratoga-Weather Station Historical Data
Daily Summary for June 15, 2021 Units:  Both    English   Metric
Daily Weekly Monthly Yearly Custom
  High: Low: Average:
Temperature: 72 °F /  22.2 °C 63.3 °F /  17.4 °C 66.6 °F /  19.2 °C
Dew Point: 66.9 °F /  19.4 °C 61.9 °F /  16.6 °C 64 °F /  17.8 °C
Humidity: 96% 83% 92%
Wind Speed: 8.1mph /  13km/h - 1.2mph /  1.9km/h
Wind Gust: 10mph /  16.1km/h - -
Wind- - WSW
Pressure: 29.9 in /  1012.9 hPa 29.8 in /  1010.2 hPa -
Precipitation: 0.05 in /  1.3 mm    
Historical Graphs
 
 
Tabular Data for June 15, 2021
Time Temperature Dew Point Pressure Wind Wind Speed Wind Gust Humidity Rainfall Rate (Hourly) solar
00:01 64.2 °F /  17.9 °C 62.4 °F /  16.9 °C 29.9in /  1011.9hPa Calm     94% 0in /  0.0mm 0 W/m2
00:06 64.2 °F /  17.9 °C 62.4 °F /  16.9 °C 29.9in /  1011.9hPa Calm     94% 0in /  0.0mm 0 W/m2
00:11 64.2 °F /  17.9 °C 62.4 °F /  16.9 °C 29.9in /  1011.9hPa Calm     94% 0in /  0.0mm 0 W/m2
00:16 64.2 °F /  17.9 °C 62.4 °F /  16.9 °C 29.9in /  1011.9hPa Calm     94% 0in /  0.0mm 0 W/m2
00:21 64.2 °F /  17.9 °C 62.4 °F /  16.9 °C 29.9in /  1011.9hPa Calm     94% 0in /  0.0mm 0 W/m2
00:26 64.2 °F /  17.9 °C 62.4 °F /  16.9 °C 29.9in /  1011.9hPa Calm     94% 0in /  0.0mm 0 W/m2
00:31 64 °F /  17.8 °C 62.2 °F /  16.8 °C 29.9in /  1011.9hPa Calm     94% 0in /  0.0mm 0 W/m2
00:36 64 °F /  17.8 °C 62.2 °F /  16.8 °C 29.9in /  1011.9hPa Calm     94% 0in /  0.0mm 0 W/m2
00:41 64 °F /  17.8 °C 62.2 °F /  16.8 °C 29.9in /  1011.9hPa Calm     94% 0in /  0.0mm 0 W/m2
00:46 64 °F /  17.8 °C 62.2 °F /  16.8 °C 29.9in /  1011.9hPa Calm     94% 0in /  0.0mm 0 W/m2
00:51 64 °F /  17.8 °C 62.2 °F /  16.8 °C 29.9in /  1011.9hPa Calm     94% 0in /  0.0mm 0 W/m2
00:56 64 °F /  17.8 °C 62.6 °F /  17 °C 29.9in /  1011.9hPa Calm     95% 0in /  0.0mm 0 W/m2
01:01 63.9 °F /  17.7 °C 62.4 °F /  16.9 °C 29.9in /  1011.9hPa Calm     95% 0in /  0.0mm 0 W/m2
01:06 63.9 °F /  17.7 °C 62.4 °F /  16.9 °C 29.9in /  1011.9hPa Calm     95% 0in /  0.0mm 0 W/m2
01:11 63.9 °F /  17.7 °C 62.4 °F /  16.9 °C 29.9in /  1011.9hPa Calm     95% 0in /  0.0mm 0 W/m2
01:16 63.9 °F /  17.7 °C 62.4 °F /  16.9 °C 29.9in /  1011.9hPa Calm     95% 0in /  0.0mm 0 W/m2
01:21 63.9 °F /  17.7 °C 62.4 °F /  16.9 °C 29.9in /  1011.9hPa Calm     95% 0in /  0.0mm 0 W/m2
01:26 63.9 °F /  17.7 °C 62.4 °F /  16.9 °C 29.9in /  1011.9hPa Calm     95% 0in /  0.0mm 0 W/m2
01:31 63.9 °F /  17.7 °C 62.4 °F /  16.9 °C 29.9in /  1011.9hPa Calm     95% 0in /  0.0mm 0 W/m2
01:36 63.9 °F /  17.7 °C 62.4 °F /  16.9 °C 29.9in /  1011.9hPa Calm     95% 0in /  0.0mm 0 W/m2
01:41 63.9 °F /  17.7 °C 62.4 °F /  16.9 °C 29.9in /  1011.9hPa Calm     95% 0in /  0.0mm 0 W/m2
01:46 63.9 °F /  17.7 °C 62.4 °F /  16.9 °C 29.9in /  1011.9hPa Calm     95% 0in /  0.0mm 0 W/m2
01:51 63.9 °F /  17.7 °C 62.4 °F /  16.9 °C 29.9in /  1011.9hPa Calm     95% 0in /  0.0mm 0 W/m2
01:56 63.9 °F /  17.7 °C 62.4 °F /  16.9 °C 29.9in /  1011.9hPa Calm     95% 0in /  0.0mm 0 W/m2
02:01 63.9 °F /  17.7 °C 62.4 °F /  16.9 °C 29.9in /  1011.9hPa Calm     95% 0in /  0.0mm 0 W/m2
02:06 63.9 °F /  17.7 °C 62.4 °F /  16.9 °C 29.9in /  1011.9hPa Calm     95% 0in /  0.0mm 0 W/m2
02:11 63.9 °F /  17.7 °C 62.4 °F /  16.9 °C 29.9in /  1011.5hPa Calm     95% 0in /  0.0mm 0 W/m2
02:17 64 °F /  17.8 °C 62.6 °F /  17 °C 29.9in /  1011.5hPa Calm     95% 0in /  0.0mm 0 W/m2
02:22 64 °F /  17.8 °C 62.6 °F /  17 °C 29.9in /  1011.5hPa Calm     95% 0in /  0.0mm 0 W/m2
02:27 64 °F /  17.8 °C 62.6 °F /  17 °C 29.9in /  1011.2hPa Calm     95% 0in /  0.0mm 0 W/m2
02:32 63.9 °F /  17.7 °C 62.4 °F /  16.9 °C 29.9in /  1011.2hPa Calm     95% 0in /  0.0mm 0 W/m2
02:37 63.9 °F /  17.7 °C 62.4 °F /  16.9 °C 29.9in /  1011.2hPa Calm   1mph /  1.6km/h 95% 0in /  0.0mm 0 W/m2
02:42 63.9 °F /  17.7 °C 62.4 °F /  16.9 °C 29.9in /  1010.8hPa Calm     95% 0in /  0.0mm 0 W/m2
02:47 63.9 °F /  17.7 °C 62.4 °F /  16.9 °C 29.9in /  1010.8hPa Calm   1mph /  1.6km/h 95% 0in /  0.0mm 0 W/m2
02:52 63.9 °F /  17.7 °C 62.4 °F /  16.9 °C 29.9in /  1010.8hPa Calm     95% 0in /  0.0mm 0 W/m2
02:57 63.9 °F /  17.7 °C 62.4 °F /  16.9 °C 29.9in /  1010.8hPa Calm   3mph /  4.8km/h 95% 0in /  0.0mm 0 W/m2
03:02 64 °F /  17.8 °C 62.6 °F /  17 °C 29.9in /  1010.8hPa SE 2mph /  3.2km/h 2mph /  3.2km/h 95% 0in /  0.0mm 0 W/m2
03:07 64.2 °F /  17.9 °C 63.1 °F /  17.3 °C 29.9in /  1010.8hPa SE 0.9mph /  1.4km/h 3mph /  4.8km/h 96% 0in /  0.0mm 0 W/m2
03:12 64.2 °F /  17.9 °C 63.1 °F /  17.3 °C 29.9in /  1010.8hPa SE 2mph /  3.2km/h 2mph /  3.2km/h 96% 0in /  0.0mm 0 W/m2
03:17 64.2 °F /  17.9 °C 62.8 °F /  17.1 °C 29.9in /  1010.8hPa ESE 0.9mph /  1.4km/h 3mph /  4.8km/h 95% 0in /  0.0mm 0 W/m2
03:22 64.2 °F /  17.9 °C 62.8 °F /  17.1 °C 29.9in /  1010.8hPa ESE 0.9mph /  1.4km/h 2mph /  3.2km/h 95% 0in /  0.0mm 0 W/m2
03:27 64 °F /  17.8 °C 62.6 °F /  17 °C 29.8in /  1010.5hPa Calm   3mph /  4.8km/h 95% 0in /  0.0mm 0 W/m2
03:32 64 °F /  17.8 °C 62.6 °F /  17 °C 29.8in /  1010.5hPa Calm     95% 0in /  0.0mm 0 W/m2
03:37 64 °F /  17.8 °C 62.6 °F /  17 °C 29.8in /  1010.5hPa Calm   1mph /  1.6km/h 95% 0in /  0.0mm 0 W/m2
03:42 64 °F /  17.8 °C 62.6 °F /  17 °C 29.9in /  1010.8hPa Calm     95% 0in /  0.0mm 0 W/m2
03:47 64 °F /  17.8 °C 62.6 °F /  17 °C 29.8in /  1010.5hPa Calm   1mph /  1.6km/h 95% 0in /  0.0mm 0 W/m2
03:52 64 °F /  17.8 °C 62.6 °F /  17 °C 29.8in /  1010.5hPa Calm     95% 0in /  0.0mm 0 W/m2
03:57 63.9 °F /  17.7 °C 62.4 °F /  16.9 °C 29.8in /  1010.5hPa Calm     95% 0in /  0.0mm 0 W/m2
04:02 63.9 °F /  17.7 °C 62.4 °F /  16.9 °C 29.8in /  1010.5hPa Calm     95% 0in /  0.0mm 0 W/m2
04:07 63.9 °F /  17.7 °C 62.4 °F /  16.9 °C 29.8in /  1010.5hPa Calm     95% 0in /  0.0mm 0 W/m2
04:12 63.9 °F /  17.7 °C 62.4 °F /  16.9 °C 29.8in /  1010.5hPa Calm     95% 0in /  0.0mm 0 W/m2
04:17 63.7 °F /  17.6 °C 62.2 °F /  16.8 °C 29.8in /  1010.5hPa Calm     95% 0in /  0.0mm 0 W/m2
04:22 63.7 °F /  17.6 °C 62.2 °F /  16.8 °C 29.8in /  1010.2hPa Calm     95% 0in /  0.0mm 0 W/m2
04:27 63.7 °F /  17.6 °C 62.2 °F /  16.8 °C 29.8in /  1010.2hPa Calm     95% 0in /  0.0mm 0 W/m2
04:32 63.7 °F /  17.6 °C 62.2 °F /  16.8 °C 29.8in /  1010.5hPa Calm     95% 0in /  0.0mm 0 W/m2
04:37 63.7 °F /  17.6 °C 62.6 °F /  17 °C 29.8in /  1010.5hPa Calm     96% 0in /  0.0mm 0 W/m2
04:42 63.7 °F /  17.6 °C 62.6 °F /  17 °C 29.8in /  1010.5hPa Calm     96% 0in /  0.0mm 0 W/m2
04:47 63.7 °F /  17.6 °C 62.6 °F /  17 °C 29.8in /  1010.5hPa Calm   2mph /  3.2km/h 96% 0in /  0.0mm 0 W/m2
04:52 63.9 °F /  17.7 °C 62.8 °F /  17.1 °C 29.9in /  1010.8hPa Calm     96% 0in /  0.0mm 0 W/m2
04:57 63.9 °F /  17.7 °C 62.8 °F /  17.1 °C 29.9in /  1010.8hPa Calm   1mph /  1.6km/h 96% 0in /  0.0mm 0 W/m2
05:02 63.9 °F /  17.7 °C 62.8 °F /  17.1 °C 29.9in /  1010.8hPa Calm   1mph /  1.6km/h 96% 0in /  0.0mm 0 W/m2
05:07 63.9 °F /  17.7 °C 62.8 °F /  17.1 °C 29.8in /  1010.5hPa Calm     96% 0in /  0.0mm 0 W/m2
05:12 63.9 °F /  17.7 °C 62.8 °F /  17.1 °C 29.9in /  1010.8hPa Calm   1mph /  1.6km/h 96% 0in /  0.0mm 0 W/m2
05:17 63.9 °F /  17.7 °C 62.8 °F /  17.1 °C 29.9in /  1010.8hPa Calm     96% 0in /  0.0mm 0 W/m2
05:22 63.9 °F /  17.7 °C 62.8 °F /  17.1 °C 29.9in /  1010.8hPa Calm     96% 0in /  0.0mm 0 W/m2
05:27 63.7 °F /  17.6 °C 62.6 °F /  17 °C 29.9in /  1011.2hPa Calm     96% 0in /  0.0mm 0 W/m2
05:32 63.7 °F /  17.6 °C 62.6 °F /  17 °C 29.9in /  1010.8hPa Calm     96% 0in /  0.0mm 0 W/m2
05:37 63.7 °F /  17.6 °C 62.6 °F /  17 °C 29.9in /  1011.2hPa Calm     96% 0in /  0.0mm 0 W/m2
05:42 63.7 °F /  17.6 °C 62.6 °F /  17 °C 29.9in /  1010.8hPa Calm     96% 0in /  0.0mm 0 W/m2
05:47 63.7 °F /  17.6 °C 62.6 °F /  17 °C 29.9in /  1010.8hPa Calm     96% 0in /  0.0mm 0 W/m2
05:52 63.7 °F /  17.6 °C 62.6 °F /  17 °C 29.9in /  1010.8hPa Calm     96% 0in /  0.0mm 0 W/m2
05:57 63.7 °F /  17.6 °C 62.6 °F /  17 °C 29.9in /  1010.8hPa Calm     96% 0in /  0.0mm 0 W/m2
06:02 63.7 °F /  17.6 °C 62.6 °F /  17 °C 29.9in /  1010.8hPa Calm     96% 0in /  0.0mm 0 W/m2
06:07 63.5 °F /  17.5 °C 62.1 °F /  16.7 °C 29.9in /  1010.8hPa Calm     95% 0in /  0.0mm 0 W/m2
06:12 63.5 °F /  17.5 °C 62.1 °F /  16.7 °C 29.9in /  1010.8hPa Calm     95% 0in /  0.0mm 0 W/m2
06:17 63.3 °F /  17.4 °C 61.9 °F /  16.6 °C 29.9in /  1010.8hPa Calm     95% 0in /  0.0mm 0 W/m2
06:22 63.3 °F /  17.4 °C 61.9 °F /  16.6 °C 29.9in /  1010.8hPa Calm     95% 0in /  0.0mm 0 W/m2
06:27 63.3 °F /  17.4 °C 61.9 °F /  16.6 °C 29.9in /  1010.8hPa Calm     95% 0in /  0.0mm 0 W/m2
06:32 63.3 °F /  17.4 °C 61.9 °F /  16.6 °C 29.9in /  1010.8hPa Calm     95% 0in /  0.0mm 0 W/m2
06:37 63.3 °F /  17.4 °C 61.9 °F /  16.6 °C 29.9in /  1010.8hPa Calm     95% 0in /  0.0mm 0 W/m2
06:42 63.3 °F /  17.4 °C 61.9 °F /  16.6 °C 29.8in /  1010.5hPa Calm     95% 0in /  0.0mm 0 W/m2
06:47 63.3 °F /  17.4 °C 61.9 °F /  16.6 °C 29.8in /  1010.5hPa Calm     95% 0in /  0.0mm 0 W/m2
06:52 63.3 °F /  17.4 °C 61.9 °F /  16.6 °C 29.8in /  1010.5hPa Calm     95% 0in /  0.0mm 0 W/m2
06:57 63.3 °F /  17.4 °C 61.9 °F /  16.6 °C 29.8in /  1010.5hPa Calm     95% 0in /  0.0mm 0 W/m2
07:02 63.3 °F /  17.4 °C 61.9 °F /  16.6 °C 29.8in /  1010.5hPa Calm     95% 0in /  0.0mm 0 W/m2
07:07 63.3 °F /  17.4 °C 61.9 °F /  16.6 °C 29.8in /  1010.5hPa Calm     95% 0in /  0.0mm 0 W/m2
07:12 63.5 °F /  17.5 °C 62.1 °F /  16.7 °C 29.8in /  1010.2hPa Calm     95% 0in /  0.0mm 0 W/m2
07:17 63.5 °F /  17.5 °C 62.1 °F /  16.7 °C 29.8in /  1010.2hPa Calm     95% 0in /  0.0mm 0 W/m2
07:22 63.5 °F /  17.5 °C 62.4 °F /  16.9 °C 29.8in /  1010.5hPa Calm     96% 0in /  0.0mm 0 W/m2
07:27 63.7 °F /  17.6 °C 62.6 °F /  17 °C 29.8in /  1010.5hPa Calm     96% 0in /  0.0mm 0 W/m2
07:32 63.7 °F /  17.6 °C 62.6 °F /  17 °C 29.8in /  1010.5hPa Calm     96% 0in /  0.0mm 0 W/m2
07:37 63.7 °F /  17.6 °C 62.6 °F /  17 °C 29.8in /  1010.5hPa Calm     96% 0in /  0.0mm 0 W/m2
07:42 63.9 °F /  17.7 °C 62.8 °F /  17.1 °C 29.9in /  1010.8hPa Calm     96% 0in /  0.0mm 5 W/m2
07:47 63.9 °F /  17.7 °C 62.8 °F /  17.1 °C 29.9in /  1010.8hPa Calm     96% 0in /  0.0mm 5 W/m2
07:52 63.9 °F /  17.7 °C 62.8 °F /  17.1 °C 29.9in /  1010.8hPa Calm     96% 0in /  0.0mm 9 W/m2
07:57 63.9 °F /  17.7 °C 62.8 °F /  17.1 °C 29.9in /  1010.8hPa Calm     96% 0in /  0.0mm 12 W/m2
08:02 63.9 °F /  17.7 °C 62.8 °F /  17.1 °C 29.9in /  1010.8hPa Calm     96% 0in /  0.0mm 14 W/m2
08:07 64 °F /  17.8 °C 63 °F /  17.2 °C 29.9in /  1010.8hPa Calm     96% 0in /  0.0mm 18 W/m2
08:13 64 °F /  17.8 °C 63 °F /  17.2 °C 29.9in /  1010.8hPa Calm     96% 0in /  0.0mm 19 W/m2
08:18 64 °F /  17.8 °C 63 °F /  17.2 °C 29.9in /  1010.8hPa Calm     96% 0in /  0.0mm 14 W/m2
08:23 64.2 °F /  17.9 °C 63.1 °F /  17.3 °C 29.9in /  1010.8hPa Calm     96% 0in /  0.0mm 12 W/m2
08:28 64.2 °F /  17.9 °C 63.1 °F /  17.3 °C 29.9in /  1010.8hPa Calm     96% 0in /  0.0mm 16 W/m2
08:33 64.2 °F /  17.9 °C 63.1 °F /  17.3 °C 29.9in /  1010.8hPa Calm     96% 0in /  0.0mm 14 W/m2
08:38 64.2 °F /  17.9 °C 63.1 °F /  17.3 °C 29.9in /  1010.8hPa Calm     96% 0in /  0.0mm 12 W/m2
08:43 64.4 °F /  18 °C 63.3 °F /  17.4 °C 29.9in /  1010.8hPa Calm     96% 0in /  0.0mm 16 W/m2
08:48 64.4 °F /  18 °C 63.3 °F /  17.4 °C 29.9in /  1010.8hPa Calm     96% 0in /  0.0mm 26 W/m2
08:53 64.6 °F /  18.1 °C 63.5 °F /  17.5 °C 29.9in /  1010.8hPa ESE 0.9mph /  1.4km/h 3mph /  4.8km/h 96% 0in /  0.0mm 37 W/m2
08:58 64.9 °F /  18.3 °C 63.9 °F /  17.7 °C 29.9in /  1010.8hPa ESE 2.9mph /  4.7km/h 6mph /  9.7km/h 96% 0in /  0.0mm 28 W/m2
09:03 65.1 °F /  18.4 °C 64 °F /  17.8 °C 29.9in /  1010.8hPa ESE 0.9mph /  1.4km/h 1mph /  1.6km/h 96% 0in /  0.0mm 35 W/m2
09:08 65.3 °F /  18.5 °C 64 °F /  17.8 °C 29.9in /  1010.8hPa NE 0.9mph /  1.4km/h 6mph /  9.7km/h 96% 0in /  0.0mm 47 W/m2
09:13 65.7 °F /  18.7 °C 64.4 °F /  18 °C 29.9in /  1010.8hPa NE 0.9mph /  1.4km/h 2mph /  3.2km/h 96% 0in /  0.0mm 60 W/m2
09:18 65.8 °F /  18.8 °C 64.6 °F /  18.1 °C 29.9in /  1010.8hPa NE 0.9mph /  1.4km/h 1mph /  1.6km/h 96% 0in /  0.0mm 58 W/m2
09:23 65.8 °F /  18.8 °C 64.4 °F /  18 °C 29.9in /  1010.8hPa NE 0.9mph /  1.4km/h 2mph /  3.2km/h 95% 0in /  0.0mm 42 W/m2
09:28 66 °F /  18.9 °C 64.6 °F /  18.1 °C 29.9in /  1010.8hPa Calm   1mph /  1.6km/h 95% 0in /  0.0mm 42 W/m2
09:33 66.4 °F /  19.1 °C 64.9 °F /  18.3 °C 29.9in /  1010.8hPa WNW 0.9mph /  1.4km/h 2mph /  3.2km/h 95% 0in /  0.0mm 44 W/m2
09:38 66.6 °F /  19.2 °C 64.8 °F /  18.2 °C 29.9in /  1010.8hPa ENE 2mph /  3.2km/h 2mph /  3.2km/h 94% 0in /  0.0mm 70 W/m2
09:43 66.7 °F /  19.3 °C 64.9 °F /  18.3 °C 29.9in /  1010.8hPa Calm   1mph /  1.6km/h 94% 0in /  0.0mm 88 W/m2
09:48 66.9 °F /  19.4 °C 65.1 °F /  18.4 °C 29.9in /  1010.8hPa Calm   4mph /  6.4km/h 94% 0in /  0.0mm 86 W/m2
09:53 67.1 °F /  19.5 °C 64.9 °F /  18.3 °C 29.9in /  1010.8hPa NNW 2.9mph /  4.7km/h 4mph /  6.4km/h 93% 0in /  0.0mm 95 W/m2
09:58 67.3 °F /  19.6 °C 65.1 °F /  18.4 °C 29.9in /  1010.8hPa NW 0.9mph /  1.4km/h 4mph /  6.4km/h 93% 0in /  0.0mm 107 W/m2
10:03 67.5 °F /  19.7 °C 65.3 °F /  18.5 °C 29.9in /  1010.8hPa South 0.9mph /  1.4km/h 4mph /  6.4km/h 93% 0in /  0.0mm 163 W/m2
10:08 67.6 °F /  19.8 °C 65.5 °F /  18.6 °C 29.9in /  1010.8hPa Calm   2mph /  3.2km/h 93% 0in /  0.0mm 139 W/m2
10:13 67.6 °F /  19.8 °C 65.3 °F /  18.5 °C 29.9in /  1010.8hPa NNW 0.9mph /  1.4km/h 6mph /  9.7km/h 92% 0in /  0.0mm 163 W/m2
10:18 67.8 °F /  19.9 °C 65.5 °F /  18.6 °C 29.9in /  1010.8hPa NNE 0.9mph /  1.4km/h 3mph /  4.8km/h 92% 0in /  0.0mm 216 W/m2
10:23 68.2 °F /  20.1 °C 65.8 °F /  18.8 °C 29.9in /  1010.8hPa West 2mph /  3.2km/h 4mph /  6.4km/h 92% 0in /  0.0mm 207 W/m2
10:28 68.4 °F /  20.2 °C 65.7 °F /  18.7 °C 29.9in /  1010.8hPa NW 0.9mph /  1.4km/h 5mph /  8km/h 91% 0in /  0.0mm 214 W/m2
10:33 68.5 °F /  20.3 °C 65.8 °F /  18.8 °C 29.9in /  1010.8hPa NNW 2mph /  3.2km/h 3mph /  4.8km/h 91% 0in /  0.0mm 246 W/m2
10:38 68.7 °F /  20.4 °C 65.7 °F /  18.7 °C 29.9in /  1010.8hPa NW 2.9mph /  4.7km/h 5mph /  8km/h 90% 0in /  0.0mm 206 W/m2
10:43 68.9 °F /  20.5 °C 65.8 °F /  18.8 °C 29.9in /  1010.8hPa WSW 2.9mph /  4.7km/h 3mph /  4.8km/h 90% 0in /  0.0mm 192 W/m2
10:48 69.1 °F /  20.6 °C 65.7 °F /  18.7 °C 29.9in /  1011.2hPa West 2mph /  3.2km/h 2mph /  3.2km/h 89% 0in /  0.0mm 209 W/m2
10:53 69.3 °F /  20.7 °C 65.5 °F /  18.6 °C 29.9in /  1010.8hPa North 2mph /  3.2km/h 4mph /  6.4km/h 88% 0in /  0.0mm 121 W/m2
10:58 69.3 °F /  20.7 °C 65.5 °F /  18.6 °C 29.9in /  1010.8hPa Calm   5mph /  8km/h 88% 0in /  0.0mm 244 W/m2
11:03 69.4 °F /  20.8 °C 65.7 °F /  18.7 °C 29.9in /  1010.8hPa NNE 4mph /  6.4km/h 5mph /  8km/h 88% 0in /  0.0mm 237 W/m2
11:08 69.4 °F /  20.8 °C 65.7 °F /  18.7 °C 29.9in /  1010.8hPa West 2mph /  3.2km/h 7mph /  11.3km/h 88% 0in /  0.0mm 241 W/m2
11:13 69.6 °F /  20.9 °C 65.7 °F /  18.7 °C 29.9in /  1011.2hPa NW 0.9mph /  1.4km/h 4mph /  6.4km/h 87% 0in /  0.0mm 229 W/m2
11:18 69.8 °F /  21 °C 65.8 °F /  18.8 °C 29.9in /  1011.2hPa NW 0.9mph /  1.4km/h 4mph /  6.4km/h 87% 0in /  0.0mm 241 W/m2
11:23 70 °F /  21.1 °C 65.7 °F /  18.7 °C 29.9in /  1011.2hPa Calm   9mph /  14.5km/h 86% 0in /  0.0mm 257 W/m2
11:28 70 °F /  21.1 °C 65.7 °F /  18.7 °C 29.9in /  1011.2hPa West 2mph /  3.2km/h 7mph /  11.3km/h 86% 0in /  0.0mm 223 W/m2
11:33 70 °F /  21.1 °C 65.7 °F /  18.7 °C 29.9in /  1011.2hPa West 4mph /  6.4km/h 9mph /  14.5km/h 86% 0in /  0.0mm 267 W/m2
11:38 70.2 °F /  21.2 °C 65.8 °F /  18.8 °C 29.9in /  1011.2hPa WNW 8.1mph /  13km/h 9mph /  14.5km/h 86% 0in /  0.0mm 299 W/m2
11:43 70.2 °F /  21.2 °C 65.8 °F /  18.8 °C 29.9in /  1010.8hPa Calm   2mph /  3.2km/h 86% 0in /  0.0mm 274 W/m2
11:48 70.3 °F /  21.3 °C 65.7 °F /  18.7 °C 29.9in /  1011.2hPa WSW 4mph /  6.4km/h 5mph /  8km/h 85% 0in /  0.0mm 149 W/m2
11:53 70.2 °F /  21.2 °C 65.5 °F /  18.6 °C 29.9in /  1011.2hPa NW 2.9mph /  4.7km/h 8mph /  12.9km/h 85% 0in /  0.0mm 149 W/m2
11:58 70 °F /  21.1 °C 65.3 °F /  18.5 °C 29.9in /  1011.2hPa SW 2mph /  3.2km/h 8mph /  12.9km/h 85% 0in /  0.0mm 111 W/m2
12:03 70 °F /  21.1 °C 65.3 °F /  18.5 °C 29.9in /  1010.8hPa NNW 0.9mph /  1.4km/h 3mph /  4.8km/h 85% 0in /  0.0mm 98 W/m2
12:08 69.8 °F /  21 °C 65.1 °F /  18.4 °C 29.9in /  1010.8hPa WNW 2.9mph /  4.7km/h 7mph /  11.3km/h 85% 0in /  0.0mm 70 W/m2
12:13 69.4 °F /  20.8 °C 64.8 °F /  18.2 °C 29.9in /  1011.2hPa WNW 2mph /  3.2km/h 3mph /  4.8km/h 85% 0in /  0.0mm 67 W/m2
12:18 69.3 °F /  20.7 °C 64.6 °F /  18.1 °C 29.9in /  1010.8hPa NNE 0.9mph /  1.4km/h 4mph /  6.4km/h 85% 0in /  0.0mm 69 W/m2
12:23 69.3 °F /  20.7 °C 64.9 °F /  18.3 °C 29.9in /  1010.8hPa East 6mph /  9.7km/h 6mph /  9.7km/h 86% 0in /  0.0mm 76 W/m2
12:28 69.1 °F /  20.6 °C 64.8 °F /  18.2 °C 29.9in /  1010.8hPa WNW 0.9mph /  1.4km/h 7mph /  11.3km/h 86% 0in /  0.0mm 102 W/m2
12:33 69.1 °F /  20.6 °C 64.8 °F /  18.2 °C 29.9in /  1010.8hPa NNW 0.9mph /  1.4km/h 2mph /  3.2km/h 86% 0in /  0.0mm 146 W/m2
12:38 69.1 °F /  20.6 °C 64.8 °F /  18.2 °C 29.9in /  1010.8hPa Calm   7mph /  11.3km/h 86% 0in /  0.0mm 156 W/m2
12:43 69.3 °F /  20.7 °C 64.9 °F /  18.3 °C 29.9in /  1010.8hPa SSW 2mph /  3.2km/h 3mph /  4.8km/h 86% 0in /  0.0mm 95 W/m2
12:48 69.3 °F /  20.7 °C 64.9 °F /  18.3 °C 29.9in /  1010.8hPa NW 0.9mph /  1.4km/h 7mph /  11.3km/h 86% 0in /  0.0mm 84 W/m2
12:53 69.3 °F /  20.7 °C 64.9 °F /  18.3 °C 29.9in /  1010.8hPa WSW 4.9mph /  7.9km/h 6mph /  9.7km/h 86% 0in /  0.0mm 67 W/m2
12:58 69.3 °F /  20.7 °C 64.9 °F /  18.3 °C 29.9in /  1010.8hPa Calm   3mph /  4.8km/h 86% 0in /  0.0mm 63 W/m2
13:03 69.3 °F /  20.7 °C 64.9 °F /  18.3 °C 29.9in /  1010.8hPa West 0.9mph /  1.4km/h 2mph /  3.2km/h 86% 0in /  0.0mm 60 W/m2
13:08 69.1 °F /  20.6 °C 64.8 °F /  18.2 °C 29.9in /  1010.8hPa NNW 2mph /  3.2km/h 2mph /  3.2km/h 86% 0in /  0.0mm 54 W/m2
13:13 69.1 °F /  20.6 °C 64.8 °F /  18.2 °C 29.9in /  1010.8hPa NW 2mph /  3.2km/h 3mph /  4.8km/h 86% 0in /  0.0mm 60 W/m2
13:18 68.9 °F /  20.5 °C 64.9 °F /  18.3 °C 29.9in /  1010.8hPa NNW 2mph /  3.2km/h 4mph /  6.4km/h 87% 0in /  0.0mm 67 W/m2
13:23 68.9 °F /  20.5 °C 64.9 °F /  18.3 °C 29.9in /  1010.8hPa West 0.9mph /  1.4km/h 3mph /  4.8km/h 87% 0in /  0.0mm 76 W/m2
13:28 68.7 °F /  20.4 °C 64.9 °F /  18.3 °C 29.9in /  1010.8hPa West 6mph /  9.7km/h 7mph /  11.3km/h 88% 0in /  0.0mm 98 W/m2
13:33 68.4 °F /  20.2 °C 64.6 °F /  18.1 °C 29.9in /  1010.8hPa Calm   3mph /  4.8km/h 88% 0in /  0.0mm 77 W/m2
13:38 68.4 °F /  20.2 °C 64.9 °F /  18.3 °C 29.9in /  1010.8hPa NNW 0.9mph /  1.4km/h 3mph /  4.8km/h 89% 0in /  0.0mm 81 W/m2
13:43 68.4 °F /  20.2 °C 64.9 °F /  18.3 °C 29.9in /  1010.8hPa WNW 4mph /  6.4km/h 5mph /  8km/h 89% 0in /  0.0mm 65 W/m2
13:48 68.2 °F /  20.1 °C 65.1 °F /  18.4 °C 29.9in /  1011.2hPa Calm   1mph /  1.6km/h 90% 0in /  0.0mm 67 W/m2
13:53 68.2 °F /  20.1 °C 65.1 °F /  18.4 °C 29.9in /  1010.8hPa NE 0.9mph /  1.4km/h 2mph /  3.2km/h 90% 0in /  0.0mm 49 W/m2
13:59 68.2 °F /  20.1 °C 65.1 °F /  18.4 °C 29.9in /  1010.8hPa Calm   2mph /  3.2km/h 90% 0in /  0.0mm 74 W/m2
14:04 68.4 °F /  20.2 °C 65.3 °F /  18.5 °C 29.9in /  1010.8hPa Calm     90% 0in /  0.0mm 56 W/m2
14:09 68.2 °F /  20.1 °C 65.1 °F /  18.4 °C 29.9in /  1010.8hPa Calm     90% 0in /  0.0mm 104 W/m2
14:14 68.2 °F /  20.1 °C 65.1 °F /  18.4 °C 29.9in /  1010.8hPa WNW 2mph /  3.2km/h 2mph /  3.2km/h 90% 0in /  0.0mm 158 W/m2
14:19 68.4 °F /  20.2 °C 65.3 °F /  18.5 °C 29.9in /  1010.8hPa WNW 4mph /  6.4km/h 4mph /  6.4km/h 90% 0in /  0.0mm 243 W/m2
14:24 68.5 °F /  20.3 °C 65.5 °F /  18.6 °C 29.9in /  1010.8hPa NW 2mph /  3.2km/h 4mph /  6.4km/h 90% 0in /  0.0mm 257 W/m2
14:29 68.7 °F /  20.4 °C 65.3 °F /  18.5 °C 29.8in /  1010.5hPa NNW 0.9mph /  1.4km/h 4mph /  6.4km/h 89% 0in /  0.0mm 311 W/m2
14:34 69.1 °F /  20.6 °C 65.7 °F /  18.7 °C 29.9in /  1010.8hPa WNW 0.9mph /  1.4km/h 5mph /  8km/h 89% 0in /  0.0mm 269 W/m2
14:39 69.3 °F /  20.7 °C 65.5 °F /  18.6 °C 29.9in /  1010.8hPa Calm   5mph /  8km/h 88% 0in /  0.0mm 81 W/m2
14:44 69.4 °F /  20.8 °C 65.7 °F /  18.7 °C 29.9in /  1010.8hPa WNW 2.9mph /  4.7km/h 4mph /  6.4km/h 88% 0in /  0.0mm 134 W/m2
14:49 69.3 °F /  20.7 °C 65.3 °F /  18.5 °C 29.9in /  1010.8hPa West 0.9mph /  1.4km/h 7mph /  11.3km/h 87% 0in /  0.0mm 142 W/m2
14:54 69.1 °F /  20.6 °C 65.3 °F /  18.5 °C 29.9in /  1010.8hPa Calm   1mph /  1.6km/h 88% 0in /  0.0mm 146 W/m2
14:59 69.1 °F /  20.6 °C 65.3 °F /  18.5 °C 29.9in /  1010.8hPa SSW 2mph /  3.2km/h 3mph /  4.8km/h 88% 0in /  0.0mm 178 W/m2
15:04 69.3 °F /  20.7 °C 65.5 °F /  18.6 °C 29.9in /  1010.8hPa NW 2.9mph /  4.7km/h 4mph /  6.4km/h 88% 0in /  0.0mm 236 W/m2
15:09 69.4 °F /  20.8 °C 65.7 °F /  18.7 °C 29.9in /  1010.8hPa SSW 2.9mph /  4.7km/h 3mph /  4.8km/h 88% 0in /  0.0mm 309 W/m2
15:14 69.4 °F /  20.8 °C 65.7 °F /  18.7 °C 29.9in /  1010.8hPa SSW 2mph /  3.2km/h 8mph /  12.9km/h 88% 0in /  0.0mm 246 W/m2
15:19 69.6 °F /  20.9 °C 65.8 °F /  18.8 °C 29.9in /  1010.8hPa SW 4mph /  6.4km/h 5mph /  8km/h 88% 0in /  0.0mm 155 W/m2
15:24 69.6 °F /  20.9 °C 65.7 °F /  18.7 °C 29.9in /  1010.8hPa NW 2mph /  3.2km/h 8mph /  12.9km/h 87% 0in /  0.0mm 192 W/m2
15:29 69.4 °F /  20.8 °C 65.5 °F /  18.6 °C 29.9in /  1010.8hPa NW 0.9mph /  1.4km/h 10mph /  16.1km/h 87% 0in /  0.0mm 311 W/m2
15:34 69.6 °F /  20.9 °C 65.7 °F /  18.7 °C 29.9in /  1010.8hPa West 2.9mph /  4.7km/h 5mph /  8km/h 87% 0in /  0.0mm 220 W/m2
15:39 70 °F /  21.1 °C 66 °F /  18.9 °C 29.9in /  1010.8hPa South 0.9mph /  1.4km/h 8mph /  12.9km/h 87% 0in /  0.0mm 371 W/m2
15:44 70.2 °F /  21.2 °C 65.8 °F /  18.8 °C 29.9in /  1010.8hPa WNW 2.9mph /  4.7km/h 9mph /  14.5km/h 86% 0in /  0.0mm 257 W/m2
15:49 70.2 °F /  21.2 °C 65.8 °F /  18.8 °C 29.9in /  1010.8hPa NNW 2.9mph /  4.7km/h 4mph /  6.4km/h 86% 0in /  0.0mm 186 W/m2
15:54 70.2 °F /  21.2 °C 66 °F /  18.9 °C 29.9in /  1010.8hPa NNE 0.9mph /  1.4km/h 9mph /  14.5km/h 87% 0in /  0.0mm 202 W/m2
15:59 70.2 °F /  21.2 °C 65.8 °F /  18.8 °C 29.9in /  1010.8hPa SW 2.9mph /  4.7km/h 8mph /  12.9km/h 86% 0in /  0.0mm 186 W/m2
16:04 70.2 °F /  21.2 °C 66 °F /  18.9 °C 29.9in /  1010.8hPa WNW 4mph /  6.4km/h 5mph /  8km/h 87% 0in /  0.0mm 332 W/m2
16:09 70 °F /  21.1 °C 65.7 °F /  18.7 °C 29.8in /  1010.5hPa WNW 2mph /  3.2km/h 10mph /  16.1km/h 86% 0in /  0.0mm 385 W/m2
16:14 70.3 °F /  21.3 °C 66.2 °F /  19 °C 29.8in /  1010.5hPa West 2mph /  3.2km/h 5mph /  8km/h 87% 0in /  0.0mm 408 W/m2
16:19 71.1 °F /  21.7 °C 66.7 °F /  19.3 °C 29.8in /  1010.5hPa WNW 2mph /  3.2km/h 10mph /  16.1km/h 86% 0in /  0.0mm 584 W/m2
16:24 71.6 °F /  22 °C 66.9 °F /  19.4 °C 29.8in /  1010.5hPa South 2mph /  3.2km/h 4mph /  6.4km/h 85% 0in /  0.0mm 197 W/m2
16:29 71.8 °F /  22.1 °C 66.7 °F /  19.3 °C 29.8in /  1010.5hPa Calm   3mph /  4.8km/h 84% 0in /  0.0mm 455 W/m2
16:34 72 °F /  22.2 °C 66.6 °F /  19.2 °C 29.8in /  1010.5hPa North 0.9mph /  1.4km/h 8mph /  12.9km/h 83% 0in /  0.0mm 387 W/m2
16:39 71.8 °F /  22.1 °C 66.7 °F /  19.3 °C 29.8in /  1010.5hPa WSW 4.9mph /  7.9km/h 8mph /  12.9km/h 84% 0in /  0.0mm 381 W/m2
16:44 71.6 °F /  22 °C 66.6 °F /  19.2 °C 29.8in /  1010.5hPa NNW 4mph /  6.4km/h 9mph /  14.5km/h 84% 0in /  0.0mm 357 W/m2
16:49 71.2 °F /  21.8 °C 65.8 °F /  18.8 °C 29.9in /  1010.8hPa West 2mph /  3.2km/h 3mph /  4.8km/h 83% 0in /  0.0mm 100 W/m2
16:54 71.1 °F /  21.7 °C 66 °F /  18.9 °C 29.9in /  1010.8hPa WSW 4mph /  6.4km/h 9mph /  14.5km/h 84% 0in /  0.0mm 93 W/m2
16:59 70.7 °F /  21.5 °C 65.7 °F /  18.7 °C 29.9in /  1010.8hPa NW 0.9mph /  1.4km/h 3mph /  4.8km/h 84% 0in /  0.0mm 95 W/m2
17:04 70.7 °F /  21.5 °C 65.7 °F /  18.7 °C 29.9in /  1010.8hPa WNW 2.9mph /  4.7km/h 4mph /  6.4km/h 84% 0in /  0.0mm 88 W/m2
17:09 70.7 °F /  21.5 °C 65.7 °F /  18.7 °C 29.9in /  1010.8hPa Calm   1mph /  1.6km/h 84% 0in /  0.0mm 90 W/m2
17:14 70.7 °F /  21.5 °C 66 °F /  18.9 °C 29.8in /  1010.5hPa WNW 0.9mph /  1.4km/h 3mph /  4.8km/h 85% 0in /  0.0mm 135 W/m2
17:19 70.5 °F /  21.4 °C 66.2 °F /  19 °C 29.8in /  1010.5hPa Calm   2mph /  3.2km/h 86% 0in /  0.0mm 162 W/m2
17:24 70.5 °F /  21.4 °C 66.2 °F /  19 °C 29.8in /  1010.5hPa NNW 2mph /  3.2km/h 3mph /  4.8km/h 86% 0in /  0.0mm 183 W/m2
17:29 70.3 °F /  21.3 °C 66 °F /  18.9 °C 29.8in /  1010.5hPa NE 0.9mph /  1.4km/h 4mph /  6.4km/h 86% 0in /  0.0mm 137 W/m2
17:34 70.5 °F /  21.4 °C 66.2 °F /  19 °C 29.9in /  1010.8hPa NNW 0.9mph /  1.4km/h 2mph /  3.2km/h 86% 0in /  0.0mm 132 W/m2
17:39 70.5 °F /  21.4 °C 66.2 °F /  19 °C 29.9in /  1010.8hPa NNE 0.9mph /  1.4km/h 1mph /  1.6km/h 86% 0in /  0.0mm 149 W/m2
17:44 70.5 °F /  21.4 °C 66.2 °F /  19 °C 29.9in /  1010.8hPa SW 0.9mph /  1.4km/h 2mph /  3.2km/h 86% 0in /  0.0mm 113 W/m2
17:49 70.7 °F /  21.5 °C 66.4 °F /  19.1 °C 29.9in /  1010.8hPa Calm   3mph /  4.8km/h 86% 0in /  0.0mm 70 W/m2
17:54 70.5 °F /  21.4 °C 66.2 °F /  19 °C 29.9in /  1010.8hPa Calm   1mph /  1.6km/h 86% 0in /  0.0mm 65 W/m2
17:59 70.5 °F /  21.4 °C 66.2 °F /  19 °C 29.9in /  1010.8hPa Calm   1mph /  1.6km/h 86% 0in /  0.0mm 49 W/m2
18:04 70.5 °F /  21.4 °C 66.4 °F /  19.1 °C 29.9in /  1010.8hPa NW 0.9mph /  1.4km/h 3mph /  4.8km/h 87% 0in /  0.0mm 37 W/m2
18:09 70.2 °F /  21.2 °C 66 °F /  18.9 °C 29.9in /  1010.8hPa Calm   2mph /  3.2km/h 87% 0in /  0.0mm 32 W/m2
18:14 70.2 °F /  21.2 °C 66 °F /  18.9 °C 29.9in /  1010.8hPa NW 2.9mph /  4.7km/h 3mph /  4.8km/h 87% 0in /  0.0mm 72 W/m2
18:19 70 °F /  21.1 °C 66 °F /  18.9 °C 29.9in /  1010.8hPa NNW 0.9mph /  1.4km/h 2mph /  3.2km/h 87% 0in /  0.0mm 58 W/m2
18:24 70 °F /  21.1 °C 66.2 °F /  19 °C 29.9in /  1010.8hPa NE 0.9mph /  1.4km/h 2mph /  3.2km/h 88% 0in /  0.0mm 135 W/m2
18:29 70.2 °F /  21.2 °C 66.4 °F /  19.1 °C 29.8in /  1010.5hPa Calm   3mph /  4.8km/h 88% 0in /  0.0mm 81 W/m2
18:34 70.2 °F /  21.2 °C 66 °F /  18.9 °C 29.9in /  1010.8hPa WSW 2.9mph /  4.7km/h 3mph /  4.8km/h 87% 0in /  0.0mm 127 W/m2
18:39 70.3 °F /  21.3 °C 66.2 °F /  19 °C 29.8in /  1010.5hPa Calm   1mph /  1.6km/h 87% 0in /  0.0mm 83 W/m2
18:44 70.3 °F /  21.3 °C 66.2 °F /  19 °C 29.8in /  1010.5hPa Calm   6mph /  9.7km/h 87% 0in /  0.0mm 30 W/m2
18:49 70.2 °F /  21.2 °C 65.8 °F /  18.8 °C 29.9in /  1010.8hPa NW 2mph /  3.2km/h 5mph /  8km/h 86% 0in /  0.0mm 23 W/m2
18:54 69.8 °F /  21 °C 65.5 °F /  18.6 °C 29.9in /  1010.8hPa NW 2.9mph /  4.7km/h 4mph /  6.4km/h 86% 0in /  0.0mm 16 W/m2
18:59 69.4 °F /  20.8 °C 65.5 °F /  18.6 °C 29.9in /  1010.8hPa NW 2.9mph /  4.7km/h 4mph /  6.4km/h 87% 0in /  0.0mm 14 W/m2
19:04 69.3 °F /  20.7 °C 65.3 °F /  18.5 °C 29.9in /  1010.8hPa WNW 2.9mph /  4.7km/h 7mph /  11.3km/h 87% 0in /  0.0mm 12 W/m2
19:09 69.1 °F /  20.6 °C 65.3 °F /  18.5 °C 29.9in /  1010.8hPa WNW 2mph /  3.2km/h 3mph /  4.8km/h 88% 0in /  0.0mm 12 W/m2
19:14 68.7 °F /  20.4 °C 64.9 °F /  18.3 °C 29.9in /  1011.2hPa WNW 2mph /  3.2km/h 3mph /  4.8km/h 88% 0in /  0.0mm 9 W/m2
19:19 68.5 °F /  20.3 °C 64.8 °F /  18.2 °C 29.9in /  1010.8hPa West 2mph /  3.2km/h 2mph /  3.2km/h 88% 0in /  0.0mm 7 W/m2
19:24 68.4 °F /  20.2 °C 64.9 °F /  18.3 °C 29.9in /  1011.2hPa West 2mph /  3.2km/h 6mph /  9.7km/h 89% 0in /  0.0mm 7 W/m2
19:29 68.4 °F /  20.2 °C 64.9 °F /  18.3 °C 29.9in /  1011.2hPa WNW 0.9mph /  1.4km/h 4mph /  6.4km/h 89% 0in /  0.0mm 7 W/m2
19:34 68.4 °F /  20.2 °C 64.9 °F /  18.3 °C 29.9in /  1011.2hPa Calm   2mph /  3.2km/h 89% 0in /  0.0mm 5 W/m2
19:39 68.4 °F /  20.2 °C 64.9 °F /  18.3 °C 29.9in /  1011.2hPa WNW 2mph /  3.2km/h 4mph /  6.4km/h 89% 0in /  0.0mm 0 W/m2
19:44 68.2 °F /  20.1 °C 64.8 °F /  18.2 °C 29.9in /  1011.2hPa NW 2.9mph /  4.7km/h 5mph /  8km/h 89% 0in /  0.0mm 0 W/m2
19:49 68.2 °F /  20.1 °C 64.8 °F /  18.2 °C 29.9in /  1011.2hPa NW 2mph /  3.2km/h 3mph /  4.8km/h 89% 0in /  0.0mm 0 W/m2
19:54 68.2 °F /  20.1 °C 64.8 °F /  18.2 °C 29.9in /  1011.2hPa Calm   5mph /  8km/h 89% 0in /  0.0mm 0 W/m2
19:59 68 °F /  20 °C 64.6 °F /  18.1 °C 29.9in /  1011.2hPa NNW 0.9mph /  1.4km/h 2mph /  3.2km/h 89% 0in /  0.0mm 0 W/m2
20:04 67.8 °F /  19.9 °C 64.4 °F /  18 °C 29.9in /  1011.5hPa WNW 2mph /  3.2km/h 6mph /  9.7km/h 89% 0in /  0.0mm 0 W/m2
20:09 67.8 °F /  19.9 °C 64.4 °F /  18 °C 29.9in /  1011.5hPa WNW 2mph /  3.2km/h 5mph /  8km/h 89% 0in /  0.0mm 0 W/m2
20:14 67.8 °F /  19.9 °C 64.8 °F /  18.2 °C 29.9in /  1011.5hPa NW 4mph /  6.4km/h 6mph /  9.7km/h 90% 0in /  0.0mm 0 W/m2
20:19 67.6 °F /  19.8 °C 64.6 °F /  18.1 °C 29.9in /  1011.9hPa Calm   6mph /  9.7km/h 90% 0in /  0.0mm 0 W/m2
20:25 67.6 °F /  19.8 °C 64.6 °F /  18.1 °C 29.9in /  1011.9hPa West 2mph /  3.2km/h 7mph /  11.3km/h 90% 0in /  0.0mm 0 W/m2
20:30 67.6 °F /  19.8 °C 64.6 °F /  18.1 °C 29.9in /  1011.9hPa SW 4mph /  6.4km/h 8mph /  12.9km/h 90% 0in /  0.0mm 0 W/m2
20:35 67.6 °F /  19.8 °C 64.6 °F /  18.1 °C 29.9in /  1011.9hPa WSW 2mph /  3.2km/h 4mph /  6.4km/h 90% 0in /  0.0mm 0 W/m2
20:40 67.3 °F /  19.6 °C 64.2 °F /  17.9 °C 29.9in /  1011.9hPa WNW 4mph /  6.4km/h 4mph /  6.4km/h 90% 0in /  0.0mm 0 W/m2
20:45 66.9 °F /  19.4 °C 64.2 °F /  17.9 °C 29.9in /  1011.9hPa West 4mph /  6.4km/h 6mph /  9.7km/h 91% 0in /  0.0mm 0 W/m2
20:50 66.7 °F /  19.3 °C 64 °F /  17.8 °C 29.9in /  1011.9hPa WNW 4mph /  6.4km/h 7mph /  11.3km/h 91% 0in /  0.0mm 0 W/m2
20:55 66.6 °F /  19.2 °C 64.2 °F /  17.9 °C 29.9in /  1011.9hPa WNW 2mph /  3.2km/h 4mph /  6.4km/h 92% 0.01in /  0.2mm 0 W/m2
21:00 66.4 °F /  19.1 °C 64 °F /  17.8 °C 29.9in /  1011.9hPa West 2.9mph /  4.7km/h 4mph /  6.4km/h 92% 0.01in /  0.2mm 0 W/m2
21:05 66.4 °F /  19.1 °C 64 °F /  17.8 °C 29.9in /  1011.9hPa West 0.9mph /  1.4km/h 2mph /  3.2km/h 92% 0.01in /  0.2mm 0 W/m2
21:10 66.4 °F /  19.1 °C 64.2 °F /  17.9 °C 29.9in /  1011.9hPa WSW 2mph /  3.2km/h 4mph /  6.4km/h 93% 0.01in /  0.2mm 0 W/m2
21:15 66.4 °F /  19.1 °C 64.2 °F /  17.9 °C 29.9in /  1012.2hPa West 2.9mph /  4.7km/h 6mph /  9.7km/h 93% 0.01in /  0.2mm 0 W/m2
21:20 66.2 °F /  19 °C 64 °F /  17.8 °C 29.9in /  1012.2hPa West 2mph /  3.2km/h 3mph /  4.8km/h 93% 0.01in /  0.2mm 0 W/m2
21:25 66.2 °F /  19 °C 64 °F /  17.8 °C 29.9in /  1012.2hPa WSW 4.9mph /  7.9km/h 5mph /  8km/h 93% 0.01in /  0.2mm 0 W/m2
21:30 66 °F /  18.9 °C 63.9 °F /  17.7 °C 29.9in /  1011.9hPa WNW 2mph /  3.2km/h 7mph /  11.3km/h 93% 0.01in /  0.2mm 0 W/m2
21:35 66 °F /  18.9 °C 64.2 °F /  17.9 °C 29.9in /  1011.9hPa West 2mph /  3.2km/h 4mph /  6.4km/h 94% 0.01in /  0.2mm 0 W/m2
21:40 66 °F /  18.9 °C 64.2 °F /  17.9 °C 29.9in /  1012.2hPa WNW 0.9mph /  1.4km/h 7mph /  11.3km/h 94% 0.01in /  0.2mm 0 W/m2
21:45 65.8 °F /  18.8 °C 64 °F /  17.8 °C 29.9in /  1012.2hPa West 2.9mph /  4.7km/h 4mph /  6.4km/h 94% 0.02in /  0.5mm 0 W/m2
21:50 65.8 °F /  18.8 °C 64 °F /  17.8 °C 29.9in /  1012.2hPa West 2mph /  3.2km/h 4mph /  6.4km/h 94% 0.01in /  0.2mm 0 W/m2
21:55 65.7 °F /  18.7 °C 63.9 °F /  17.7 °C 29.9in /  1012.2hPa WNW 4mph /  6.4km/h 4mph /  6.4km/h 94% 0.01in /  0.2mm 0 W/m2
22:00 65.7 °F /  18.7 °C 63.9 °F /  17.7 °C 29.9in /  1012.2hPa WSW 2mph /  3.2km/h 5mph /  8km/h 94% 0.01in /  0.2mm 0 W/m2
22:05 65.7 °F /  18.7 °C 63.9 °F /  17.7 °C 29.9in /  1012.2hPa NW 0.9mph /  1.4km/h 2mph /  3.2km/h 94% 0.01in /  0.2mm 0 W/m2
22:10 65.7 °F /  18.7 °C 63.9 °F /  17.7 °C 29.9in /  1012.5hPa Calm   1mph /  1.6km/h 94% 0.02in /  0.5mm 0 W/m2
22:15 65.7 °F /  18.7 °C 63.9 °F /  17.7 °C 29.9in /  1012.5hPa NW 0.9mph /  1.4km/h 1mph /  1.6km/h 94% 0.02in /  0.5mm 0 W/m2
22:20 65.7 °F /  18.7 °C 64.2 °F /  17.9 °C 29.9in /  1012.5hPa NW 2mph /  3.2km/h 3mph /  4.8km/h 95% 0.02in /  0.5mm 0 W/m2
22:25 65.7 °F /  18.7 °C 64.2 °F /  17.9 °C 29.9in /  1012.5hPa Calm   2mph /  3.2km/h 95% 0.02in /  0.5mm 0 W/m2
22:30 65.7 °F /  18.7 °C 64.2 °F /  17.9 °C 29.9in /  1012.5hPa Calm     95% 0.02in /  0.5mm 0 W/m2
22:35 65.5 °F /  18.6 °C 64 °F /  17.8 °C 29.9in /  1012.5hPa NW 2mph /  3.2km/h 3mph /  4.8km/h 95% 0.02in /  0.5mm 0 W/m2
22:40 65.5 °F /  18.6 °C 64 °F /  17.8 °C 29.9in /  1012.5hPa WNW 0.9mph /  1.4km/h 2mph /  3.2km/h 95% 0.02in /  0.5mm 0 W/m2
22:45 65.3 °F /  18.5 °C 63.9 °F /  17.7 °C 29.9in /  1012.5hPa West 2mph /  3.2km/h 2mph /  3.2km/h 95% 0.02in /  0.5mm 0 W/m2
22:50 65.3 °F /  18.5 °C 63.9 °F /  17.7 °C 29.9in /  1012.5hPa WNW 2mph /  3.2km/h 3mph /  4.8km/h 95% 0.02in /  0.5mm 0 W/m2
22:55 65.1 °F /  18.4 °C 63.7 °F /  17.6 °C 29.9in /  1012.5hPa WNW 4.9mph /  7.9km/h 9mph /  14.5km/h 95% 0.02in /  0.5mm 0 W/m2
23:00 64.8 °F /  18.2 °C 63.3 °F /  17.4 °C 29.9in /  1012.9hPa West 6mph /  9.7km/h 7mph /  11.3km/h 95% 0.03in /  0.8mm 0 W/m2
23:05 64.6 °F /  18.1 °C 63.1 °F /  17.3 °C 29.9in /  1012.5hPa West 2.9mph /  4.7km/h 6mph /  9.7km/h 95% 0.03in /  0.8mm 0 W/m2
23:10 64.4 °F /  18 °C 63 °F /  17.2 °C 29.9in /  1012.5hPa West 4mph /  6.4km/h 4mph /  6.4km/h 95% 0.02in /  0.5mm 0 W/m2
23:15 64.2 °F /  17.9 °C 62.8 °F /  17.1 °C 29.9in /  1012.9hPa West 4mph /  6.4km/h 4mph /  6.4km/h 95% 0.02in /  0.5mm 0 W/m2
23:20 64 °F /  17.8 °C 62.6 °F /  17 °C 29.9in /  1012.9hPa WNW 2mph /  3.2km/h 4mph /  6.4km/h 95% 0.02in /  0.5mm 0 W/m2
23:25 64 °F /  17.8 °C 62.2 °F /  16.8 °C 29.9in /  1012.9hPa WNW 4.9mph /  7.9km/h 5mph /  8km/h 94% 0.02in /  0.5mm 0 W/m2
23:30 63.9 °F /  17.7 °C 62.1 °F /  16.7 °C 29.9in /  1012.9hPa WSW 2.9mph /  4.7km/h 6mph /  9.7km/h 94% 0.02in /  0.5mm 0 W/m2
23:35 63.9 °F /  17.7 °C 62.1 °F /  16.7 °C 29.9in /  1012.9hPa WNW 4mph /  6.4km/h 7mph /  11.3km/h 94% 0.02in /  0.5mm 0 W/m2
23:40 63.7 °F /  17.6 °C 61.9 °F /  16.6 °C 29.9in /  1012.9hPa NW 0.9mph /  1.4km/h 3mph /  4.8km/h 94% 0.02in /  0.5mm 0 W/m2
23:45 63.9 °F /  17.7 °C 62.1 °F /  16.7 °C 29.9in /  1012.9hPa WNW 0.9mph /  1.4km/h 5mph /  8km/h 94% 0.02in /  0.5mm 0 W/m2
23:50 63.7 °F /  17.6 °C 61.9 °F /  16.6 °C 29.9in /  1012.9hPa West 0.9mph /  1.4km/h 2mph /  3.2km/h 94% 0.01in /  0.2mm 0 W/m2
23:55 63.7 °F /  17.6 °C 61.9 °F /  16.6 °C 29.9in /  1012.9hPa Calm   3mph /  4.8km/h 94% 0.01in /  0.2mm 0 W/m2
Juneau County Weather
Compliments of Weather Underground - 4 mb